Time;durP1;ratioP1;P1;durP2;ratioP2;P2;SDS_P1;SDS_P2;PMS_P1;PMS_P2;Temp;Humidity;BMP_temperature;BMP_pressure;BME280_temperature;BME280_humidity;BME280_pressure;Samples;Min_cycle;Max_cycle;Signal;HPM_P1;HPM_P2
2023/01/11 00:00:17;;;;;;;67.43;50.15;;;14.60;74.90;;;;;;4923545;28;97030;-45
2023/01/11 00:02:44;;;;;;;65.30;49.80;;;14.60;74.90;;;;;;4915749;28;95444;-50
2023/01/11 00:05:10;;;;;;;66.50;49.80;;;14.60;74.80;;;;;;4918210;28;94661;-49
2023/01/11 00:07:37;;;;;;;65.65;50.17;;;14.60;74.80;;;;;;4917714;28;99660;-47
2023/01/11 00:10:04;;;;;;;65.50;49.90;;;14.60;74.80;;;;;;4931462;28;94676;-48
2023/01/11 00:12:30;;;;;;;67.55;49.60;;;14.60;74.90;;;;;;4919110;28;96211;-46
2023/01/11 00:14:56;;;;;;;66.10;49.72;;;14.60;74.90;;;;;;4916103;28;98221;-46
2023/01/11 00:17:22;;;;;;;66.45;49.70;;;14.60;74.90;;;;;;4925715;28;95817;-47
2023/01/11 00:19:47;;;;;;;67.07;49.50;;;14.60;74.90;;;;;;4916606;28;98112;-46
2023/01/11 00:22:13;;;;;;;66.00;49.90;;;14.60;74.90;;;;;;4919783;28;96825;-45
2023/01/11 00:24:39;;;;;;;65.22;49.67;;;14.60;74.90;;;;;;4916649;28;96310;-46
2023/01/11 00:27:04;;;;;;;65.78;49.83;;;14.60;75.00;;;;;;4911698;28;99085;-47
2023/01/11 00:29:30;;;;;;;65.55;49.63;;;14.60;75.00;;;;;;4917703;28;95834;-47
2023/01/11 00:31:56;;;;;;;65.10;49.55;;;14.60;74.90;;;;;;4919832;28;94553;-46
2023/01/11 00:34:21;;;;;;;65.40;50.00;;;14.60;74.90;;;;;;4922389;28;95046;-46
2023/01/11 00:36:47;;;;;;;65.95;50.08;;;14.60;75.00;;;;;;4907083;28;98794;-47
2023/01/11 00:39:13;;;;;;;64.90;49.60;;;14.60;75.00;;;;;;4920494;28;96578;-45
2023/01/11 00:49:57;;;;;;;65.68;49.25;;;14.60;75.10;;;;;;4930503;28;96812;-47
2023/01/11 00:52:23;;;;;;;68.68;49.92;;;14.60;75.10;;;;;;4906954;28;96234;-48
2023/01/11 00:54:48;;;;;;;65.00;49.60;;;14.60;75.20;;;;;;4916474;28;96829;-45
2023/01/11 00:57:14;;;;;;;65.95;49.75;;;14.60;75.20;;;;;;4917634;28;94522;-46
2023/01/11 00:59:39;;;;;;;65.03;49.65;;;14.60;75.20;;;;;;4924613;28;98046;-45
2023/01/11 01:02:06;;;;;;;65.28;49.50;;;14.60;75.20;;;;;;4911775;28;96993;-47
2023/01/11 01:04:32;;;;;;;64.32;49.42;;;14.60;75.20;;;;;;4923828;28;98017;-45
2023/01/11 01:06:58;;;;;;;65.38;49.35;;;14.60;75.30;;;;;;4926511;28;96816;-46
2023/01/11 01:09:24;;;;;;;65.65;49.67;;;14.60;75.30;;;;;;4916186;28;100244;-45
2023/01/11 01:11:49;;;;;;;64.22;49.28;;;14.60;75.30;;;;;;4924745;28;95121;-45
2023/01/11 01:14:28;;;;;;;64.35;49.08;;;14.60;75.30;;;;;;4925799;28;95552;-46
2023/01/11 01:16:57;;;;;;;66.15;49.67;;;14.60;75.30;;;;;;4919201;28;98127;-50
2023/01/11 01:19:23;;;;;;;64.70;49.33;;;14.60;75.30;;;;;;4918758;28;97173;-46
2023/01/11 01:21:49;;;;;;;64.22;49.30;;;14.50;75.30;;;;;;4923614;28;95274;-46
2023/01/11 01:24:15;;;;;;;64.93;49.40;;;14.60;75.30;;;;;;4926696;28;95675;-45
2023/01/11 01:26:41;;;;;;;64.85;49.17;;;14.60;75.40;;;;;;4924178;28;94727;-46
2023/01/11 01:29:07;;;;;;;64.40;49.28;;;14.60;75.40;;;;;;4919765;28;97045;-48
2023/01/11 01:31:32;;;;;;;64.43;49.13;;;14.60;75.40;;;;;;4916441;28;98050;-47
2023/01/11 01:33:58;;;;;;;65.78;49.20;;;14.60;75.40;;;;;;4922705;28;97078;-48
2023/01/11 01:36:24;;;;;;;64.55;49.20;;;14.60;75.40;;;;;;4921903;28;96246;-47
2023/01/11 01:38:49;;;;;;;64.60;49.08;;;14.50;75.40;;;;;;4921198;28;96350;-48
2023/01/11 01:41:15;;;;;;;64.40;49.08;;;14.60;75.50;;;;;;4908775;28;96239;-46
2023/01/11 01:43:49;;;;;;;64.43;49.35;;;14.60;75.60;;;;;;4919081;28;97229;-46
2023/01/11 01:46:16;;;;;;;64.40;49.28;;;14.50;75.50;;;;;;4928839;28;95141;-50
2023/01/11 01:48:45;;;;;;;64.15;48.97;;;14.50;75.50;;;;;;4917636;28;98078;-48
2023/01/11 01:51:15;;;;;;;65.40;49.25;;;14.50;75.50;;;;;;4914046;28;96378;-46
2023/01/11 01:53:44;;;;;;;63.72;48.97;;;14.60;75.50;;;;;;4917744;28;102801;-47
2023/01/11 01:56:16;;;;;;;64.28;48.70;;;14.60;75.60;;;;;;4912958;28;96420;-48
2023/01/11 01:58:49;;;;;;;64.85;49.15;;;14.60;75.50;;;;;;4921200;28;96116;-45
2023/01/11 02:04:03;;;;;;;64.00;49.17;;;14.60;75.50;;;;;;4917746;28;94849;-46
2023/01/11 02:06:29;;;;;;;64.53;48.95;;;14.60;75.60;;;;;;4907712;28;95300;-46
2023/01/11 02:09:01;;;;;;;64.25;49.05;;;14.60;75.50;;;;;;4915480;28;95372;-48
2023/01/11 02:11:29;;;;;;;;;;;14.60;75.60;;;;;;4915188;28;99004;-47
2023/01/11 02:14:01;;;;;;;63.58;48.95;;;14.60;75.60;;;;;;4924918;28;95133;-47
2023/01/11 02:16:27;;;;;;;64.53;49.05;;;14.60;75.50;;;;;;4908134;28;98645;-46
2023/01/11 02:18:55;;;;;;;65.50;48.85;;;14.60;75.50;;;;;;4918565;28;102482;-47
2023/01/11 02:22:00;;;;;;;64.22;48.88;;;14.60;75.60;;;;;;4913448;28;95771;-46
2023/01/11 02:24:26;;;;;;;65.47;49.25;;;14.60;75.70;;;;;;4915556;28;96387;-49
2023/01/11 02:27:23;;;;;;;65.07;49.45;;;14.50;75.60;;;;;;4929428;28;95703;-47
2023/01/11 02:30:15;;;;;;;64.47;49.00;;;14.60;75.70;;;;;;4909342;28;96415;-45
2023/01/11 02:32:59;;;;;;;63.97;49.13;;;14.60;75.60;;;;;;4917608;28;100546;-45
2023/01/11 02:35:52;;;;;;;64.63;49.42;;;14.60;75.60;;;;;;4916309;28;95888;-48
2023/01/11 02:38:18;;;;;;;64.78;49.15;;;14.60;75.70;;;;;;4916956;28;94457;-46
2023/01/11 02:41:20;;;;;;;64.13;49.42;;;14.50;75.60;;;;;;4916708;28;95167;-47
2023/01/11 02:47:05;;;;;;;64.07;49.00;;;14.50;75.60;;;;;;4893771;28;96100;-49
2023/01/11 02:50:15;;;;;;;64.53;48.75;;;14.60;75.70;;;;;;4911669;28;96599;-46
2023/01/11 02:53:12;;;;;;;63.45;49.08;;;14.60;75.60;;;;;;4919028;28;95166;-49
2023/01/11 02:55:47;;;;;;;64.78;48.95;;;14.60;75.70;;;;;;4915948;28;96294;-51
2023/01/11 02:58:14;;;;;;;63.45;48.70;;;14.60;75.70;;;;;;4924769;28;95218;-45
2023/01/11 03:00:41;;;;;;;64.85;49.13;;;14.60;75.70;;;;;;4911080;28;97361;-46
2023/01/11 03:03:08;;;;;;;64.13;48.85;;;14.50;75.70;;;;;;4911954;28;95174;-48
2023/01/11 03:05:38;;;;;;;64.47;49.15;;;14.50;75.70;;;;;;4923598;28;98124;-45
2023/01/11 03:08:33;;;;;;;64.10;49.17;;;14.50;75.70;;;;;;4909472;28;98858;-45
2023/01/11 03:11:06;;;;;;;63.92;48.95;;;14.60;75.80;;;;;;4917316;28;97680;-46
2023/01/11 03:13:53;;;;;;;64.82;49.30;;;14.50;75.70;;;;;;4918627;28;96202;-47
2023/01/11 03:16:24;;;;;;;63.90;48.78;;;14.50;75.80;;;;;;4914611;28;97027;-49
2023/01/11 03:19:10;;;;;;;64.22;49.05;;;14.60;75.80;;;;;;4914663;28;101402;-45
2023/01/11 03:21:51;;;;;;;63.72;49.03;;;14.50;75.80;;;;;;4916227;28;95114;-46
2023/01/11 03:24:32;;;;;;;63.85;48.95;;;14.50;75.80;;;;;;4911481;28;96751;-46
2023/01/11 03:27:18;;;;;;;64.27;49.40;;;14.50;75.80;;;;;;4921234;28;96433;-46
2023/01/11 03:30:02;;;;;;;64.82;48.83;;;14.50;75.80;;;;;;4914387;28;98711;-47
2023/01/11 03:32:31;;;;;;;64.30;48.80;;;14.60;75.90;;;;;;4909500;28;99981;-47
2023/01/11 03:35:10;;;;;;;64.47;49.35;;;14.50;75.90;;;;;;4918122;28;97036;-47
2023/01/11 03:37:53;;;;;;;64.38;49.10;;;14.60;75.80;;;;;;4924664;28;95706;-48
2023/01/11 03:40:26;;;;;;;65.15;49.20;;;14.60;75.80;;;;;;4916381;28;96171;-47
2023/01/11 03:43:12;;;;;;;63.72;49.03;;;14.50;75.90;;;;;;4914630;28;101320;-46
2023/01/11 03:45:58;;;;;;;64.30;49.08;;;14.50;75.90;;;;;;4915681;28;96510;-48
2023/01/11 03:48:32;;;;;;;63.63;48.70;;;14.60;76.00;;;;;;4923471;28;97290;-47
2023/01/11 03:51:00;;;;;;;64.25;49.30;;;14.50;76.00;;;;;;4914061;28;97241;-47
2023/01/11 03:53:30;;;;;;;64.03;49.10;;;14.50;76.00;;;;;;4927861;28;96697;-47
2023/01/11 03:55:57;;;;;;;63.85;49.00;;;14.50;76.10;;;;;;4922066;28;96548;-46
2023/01/11 03:58:26;;;;;;;64.13;49.00;;;14.50;76.10;;;;;;4921460;28;96180;-47
2023/01/11 04:00:54;;;;;;;63.97;49.38;;;14.60;76.10;;;;;;4913655;28;94839;-49
2023/01/11 04:03:20;;;;;;;63.47;48.92;;;14.60;76.20;;;;;;4919162;28;95111;-48
2023/01/11 04:05:51;;;;;;;63.83;49.13;;;14.50;76.10;;;;;;4918973;28;97856;-49
2023/01/11 04:08:16;;;;;;;63.60;49.05;;;14.50;76.20;;;;;;4922590;28;97300;-47
2023/01/11 04:10:42;;;;;;;63.92;49.05;;;14.60;76.30;;;;;;4914899;28;95171;-47
2023/01/11 04:13:08;;;;;;;63.63;49.00;;;14.50;76.20;;;;;;4906003;28;99102;-47
2023/01/11 04:15:34;;;;;;;63.55;48.88;;;14.60;76.20;;;;;;4924524;28;96139;-47
2023/01/11 04:18:04;;;;;;;64.55;48.75;;;14.60;76.20;;;;;;4927515;28;95875;-48
2023/01/11 04:20:39;;;;;;;63.83;48.80;;;14.50;76.10;;;;;;4920632;28;100747;-47
2023/01/11 04:23:06;;;;;;;64.03;48.75;;;14.60;76.20;;;;;;4908234;28;94335;-48
2023/01/11 04:25:32;;;;;;;63.42;48.58;;;14.60;76.20;;;;;;4919871;28;95593;-50
2023/01/11 04:27:58;;;;;;;63.83;48.95;;;14.60;76.20;;;;;;4911294;28;96475;-48
2023/01/11 04:30:24;;;;;;;64.68;49.35;;;14.60;76.10;;;;;;4916690;28;97533;-47
2023/01/11 04:32:50;;;;;;;63.72;48.95;;;14.60;76.10;;;;;;4918393;28;95295;-46
2023/01/11 04:35:16;;;;;;;63.88;48.67;;;14.60;76.20;;;;;;4927825;28;95154;-47
2023/01/11 04:37:41;;;;;;;65.85;48.83;;;14.60;76.20;;;;;;4915201;28;95101;-47
2023/01/11 04:40:08;;;;;;;66.05;48.92;;;14.50;76.30;;;;;;4918087;28;95475;-47
2023/01/11 04:42:34;;;;;;;64.97;49.38;;;14.50;76.30;;;;;;4908743;28;95836;-47
2023/01/11 04:44:59;;;;;;;64.45;49.17;;;14.50;76.40;;;;;;4919609;28;97131;-46
2023/01/11 04:47:25;;;;;;;65.30;49.05;;;14.50;76.30;;;;;;4915539;28;100283;-46
2023/01/11 04:49:50;;;;;;;65.40;49.08;;;14.60;76.20;;;;;;4928253;28;95029;-46
2023/01/11 04:52:18;;;;;;;65.10;49.15;;;14.50;76.20;;;;;;4922649;28;95089;-47
2023/01/11 04:54:44;;;;;;;65.00;48.72;;;14.60;76.30;;;;;;4931087;28;97003;-45
2023/01/11 04:57:13;;;;;;;65.55;48.97;;;14.50;76.40;;;;;;4931590;28;97210;-46
2023/01/11 04:59:38;;;;;;;64.25;48.83;;;14.50;76.30;;;;;;4918682;28;96162;-46
2023/01/11 05:02:04;;;;;;;66.38;49.33;;;14.50;76.30;;;;;;4912866;28;95955;-47
2023/01/11 05:04:30;;;;;;;67.20;49.50;;;14.50;76.30;;;;;;4921437;28;96706;-45
2023/01/11 05:06:55;;;;;;;65.43;49.25;;;14.50;76.30;;;;;;4921259;28;96762;-46
2023/01/11 05:09:21;;;;;;;66.53;48.97;;;14.50;76.40;;;;;;4924510;28;95038;-47
2023/01/11 05:11:47;;;;;;;65.97;48.88;;;14.50;76.40;;;;;;4921711;28;97977;-47
2023/01/11 05:14:14;;;;;;;65.95;49.28;;;14.50;76.40;;;;;;4915039;28;95274;-47
2023/01/11 05:16:40;;;;;;;65.45;48.85;;;14.50;76.40;;;;;;4920943;28;95968;-47
2023/01/11 05:19:06;;;;;;;67.45;49.22;;;14.50;76.40;;;;;;4925650;28;97469;-46
2023/01/11 05:21:35;;;;;;;68.13;49.72;;;14.50;76.40;;;;;;4919569;28;96238;-47
2023/01/11 05:24:03;;;;;;;65.75;49.20;;;14.50;76.40;;;;;;4916847;28;96356;-46
2023/01/11 05:26:34;;;;;;;66.65;49.10;;;14.50;76.40;;;;;;4918606;28;96088;-46
2023/01/11 05:29:03;;;;;;;65.90;48.95;;;14.50;76.50;;;;;;4930940;28;95195;-45
2023/01/11 05:31:30;;;;;;;67.00;49.22;;;14.50;76.60;;;;;;4925958;28;97277;-47
2023/01/11 05:33:57;;;;;;;67.47;49.47;;;14.50;76.60;;;;;;4921835;28;95530;-46
2023/01/11 05:36:24;;;;;;;68.88;49.15;;;14.50;76.60;;;;;;4920271;28;94356;-52
2023/01/11 05:38:51;;;;;;;68.82;49.10;;;14.50;76.80;;;;;;4916025;28;95823;-47
2023/01/11 05:41:18;;;;;;;68.15;49.67;;;14.50;76.80;;;;;;4915893;28;95057;-45
2023/01/11 05:46:31;;;;;;;65.55;48.97;;;14.50;76.70;;;;;;4927787;28;95565;-46
2023/01/11 05:49:00;;;;;;;68.30;49.10;;;14.50;76.70;;;;;;4922436;28;94848;-46
2023/01/11 05:51:29;;;;;;;66.00;49.08;;;14.50;76.80;;;;;;4917527;28;96252;-46
2023/01/11 05:53:55;;;;;;;67.10;49.33;;;14.40;76.70;;;;;;4918084;28;96515;-47
2023/01/11 05:56:21;;;;;;;66.05;49.83;;;14.40;76.80;;;;;;4916445;28;95316;-48
2023/01/11 05:58:47;;;;;;;68.20;49.33;;;14.40;76.80;;;;;;4919189;28;96048;-48
2023/01/11 06:01:14;;;;;;;67.32;49.65;;;14.40;76.80;;;;;;4925253;28;94992;-48
2023/01/11 06:03:39;;;;;;;67.55;49.60;;;14.40;76.80;;;;;;4913177;28;96968;-48
2023/01/11 06:06:05;;;;;;;65.25;49.30;;;14.40;77.00;;;;;;4913737;28;95123;-47
2023/01/11 06:08:31;;;;;;;69.78;49.20;;;14.40;76.90;;;;;;4924116;28;96207;-47
2023/01/11 06:10:57;;;;;;;69.53;49.47;;;14.40;77.10;;;;;;4923477;28;102347;-46
2023/01/11 06:13:27;;;;;;;67.50;49.40;;;14.40;77.10;;;;;;4907836;28;97095;-48
2023/01/11 06:15:57;;;;;;;67.88;49.50;;;14.40;77.60;;;;;;4919178;28;96456;-46
2023/01/11 06:18:22;;;;;;;64.82;49.60;;;14.40;77.60;;;;;;4902739;28;104340;-46
2023/01/11 06:20:52;;;;;;;66.03;49.25;;;14.40;77.60;;;;;;4912379;28;95080;-46
2023/01/11 06:23:18;;;;;;;67.15;49.47;;;14.40;77.60;;;;;;4901256;28;97109;-47
2023/01/11 06:25:44;;;;;;;69.82;49.92;;;14.40;77.70;;;;;;4924661;28;94621;-47
2023/01/11 06:28:10;;;;;;;67.18;50.05;;;14.40;78.20;;;;;;4917982;28;99040;-46
2023/01/11 06:30:36;;;;;;;69.63;49.92;;;14.40;78.20;;;;;;4917859;28;97428;-47
2023/01/11 06:33:05;;;;;;;67.93;49.00;;;14.40;78.20;;;;;;4910516;28;98965;-46
2023/01/11 06:35:41;;;;;;;68.70;49.83;;;14.40;78.40;;;;;;4914565;28;95880;-47
2023/01/11 06:38:10;;;;;;;69.10;50.05;;;14.40;78.20;;;;;;4913559;28;97135;-45
2023/01/11 06:40:36;;;;;;;68.63;49.95;;;14.40;78.30;;;;;;4916528;28;97264;-48
2023/01/11 06:43:02;;;;;;;67.70;49.53;;;14.40;78.20;;;;;;4917499;28;97385;-48
2023/01/11 06:45:28;;;;;;;70.10;50.38;;;14.40;78.50;;;;;;4926382;28;96041;-48
2023/01/11 06:47:54;;;;;;;74.95;49.53;;;14.40;78.30;;;;;;4916100;28;96141;-49
2023/01/11 06:50:20;;;;;;;69.60;50.03;;;14.40;78.30;;;;;;4908931;28;96959;-45
2023/01/11 06:52:53;;;;;;;69.07;49.67;;;14.40;78.30;;;;;;4913148;28;99564;-46
2023/01/11 06:55:20;;;;;;;68.90;50.40;;;14.40;78.20;;;;;;4916097;28;96821;-46
2023/01/11 06:57:45;;;;;;;70.60;49.92;;;14.40;78.30;;;;;;4928578;28;96032;-48
2023/01/11 07:00:11;;;;;;;69.60;49.72;;;14.40;78.20;;;;;;4918255;28;95261;-47
2023/01/11 07:02:37;;;;;;;70.75;49.33;;;14.30;78.30;;;;;;4919308;28;97983;-46
2023/01/11 07:05:03;;;;;;;73.30;49.45;;;14.30;78.30;;;;;;4911252;28;95396;-48
2023/01/11 07:07:28;;;;;;;71.68;49.33;;;14.30;78.50;;;;;;4918395;28;95484;-47
2023/01/11 07:09:54;;;;;;;79.93;50.40;;;14.40;78.90;;;;;;4918487;28;95049;-52
2023/01/11 07:12:20;;;;;;;68.10;49.97;;;14.60;78.40;;;;;;4923058;28;95200;-52
2023/01/11 07:14:46;;;;;;;76.20;53.15;;;14.80;77.80;;;;;;4927709;28;95010;-47
2023/01/11 07:17:11;;;;;;;70.70;51.80;;;14.70;77.60;;;;;;4911043;28;95899;-49
2023/01/11 07:19:37;;;;;;;74.57;51.65;;;14.80;77.40;;;;;;4920673;28;96433;-48
2023/01/11 07:22:02;;;;;;;70.85;52.17;;;14.80;77.60;;;;;;4921133;28;104353;-48
2023/01/11 07:24:28;;;;;;;74.30;51.95;;;14.90;77.60;;;;;;4923424;28;95588;-50
2023/01/11 07:26:55;;;;;;;71.68;51.97;;;15.00;77.10;;;;;;4916352;28;96465;-45
2023/01/11 07:29:21;;;;;;;71.45;51.65;;;15.20;76.70;;;;;;4917766;28;95344;-47
2023/01/11 07:31:47;;;;;;;72.28;52.38;;;15.30;76.20;;;;;;4917454;28;97794;-55
2023/01/11 07:34:12;;;;;;;74.25;51.95;;;15.40;75.80;;;;;;4924708;28;97110;-51
2023/01/11 07:36:39;;;;;;;72.70;51.33;;;15.40;75.60;;;;;;4925189;28;95463;-51
2023/01/11 07:39:06;;;;;;;71.70;52.20;;;15.50;75.40;;;;;;4928913;28;94945;-48
2023/01/11 07:44:16;;;;;;;74.90;51.50;;;15.80;75.10;;;;;;4910118;28;97012;-48
2023/01/11 07:46:42;;;;;;;72.93;51.63;;;15.90;74.30;;;;;;4907993;28;97004;-49
2023/01/11 07:49:08;;;;;;;73.35;51.83;;;15.90;74.20;;;;;;4923450;28;98715;-48
2023/01/11 07:51:33;;;;;;;70.15;50.70;;;15.70;74.50;;;;;;4915771;28;95040;-47
2023/01/11 07:54:02;;;;;;;71.53;51.33;;;15.70;74.80;;;;;;4912475;28;95913;-49
2023/01/11 07:56:29;;;;;;;73.32;51.22;;;15.70;74.60;;;;;;4909543;28;95372;-46
2023/01/11 07:58:55;;;;;;;72.95;50.92;;;15.80;74.20;;;;;;4927677;28;95278;-53
2023/01/11 08:01:22;;;;;;;74.05;51.75;;;15.80;74.00;;;;;;4919288;28;97147;-49
2023/01/11 08:03:48;;;;;;;72.25;51.05;;;15.80;73.90;;;;;;4918059;28;96324;-49
2023/01/11 08:06:14;;;;;;;73.78;50.75;;;15.90;74.00;;;;;;4926702;28;95356;-51
2023/01/11 08:08:40;;;;;;;72.80;51.05;;;15.90;74.00;;;;;;4918910;28;96298;-48
2023/01/11 08:16:34;;;;;;;71.43;50.92;;;15.90;73.80;;;;;;4924557;28;95861;-50
2023/01/11 08:19:00;;;;;;;72.35;51.45;;;15.70;74.40;;;;;;4930317;28;98163;-53
2023/01/11 08:21:26;;;;;;;71.38;51.10;;;15.60;74.80;;;;;;4922873;28;96170;-51
2023/01/11 08:23:53;;;;;;;75.18;51.40;;;15.60;75.00;;;;;;4916003;28;95705;-53
2023/01/11 08:26:18;;;;;;;76.70;51.72;;;15.60;75.50;;;;;;4915838;28;95617;-52
2023/01/11 08:28:45;;;;;;;75.18;51.10;;;15.60;75.70;;;;;;4925804;28;94264;-48
2023/01/11 08:31:10;;;;;;;72.93;51.15;;;15.60;75.70;;;;;;4923889;28;101360;-50
2023/01/11 08:33:36;;;;;;;75.97;51.28;;;15.60;75.80;;;;;;4916561;28;96746;-52
2023/01/11 08:36:06;;;;;;;71.93;51.42;;;15.60;75.80;;;;;;4922676;28;97484;-50
2023/01/11 08:38:31;;;;;;;74.30;51.83;;;15.60;75.60;;;;;;4916244;28;96074;-54
2023/01/11 08:40:57;;;;;;;70.82;50.78;;;15.70;75.60;;;;;;4922985;28;95744;-56
2023/01/11 08:43:23;;;;;;;70.88;50.75;;;15.70;75.60;;;;;;4919859;28;96706;-58
2023/01/11 08:45:50;;;;;;;73.60;51.17;;;15.70;75.50;;;;;;4926322;28;94857;-46
2023/01/11 08:48:15;;;;;;;70.65;50.53;;;15.70;75.60;;;;;;4922588;28;95983;-48
2023/01/11 08:50:43;;;;;;;74.03;50.88;;;15.70;75.30;;;;;;4915481;28;95794;-53
2023/01/11 08:53:09;;;;;;;75.53;51.80;;;15.70;75.40;;;;;;4917783;28;95898;-50
2023/01/11 08:55:35;;;;;;;75.32;51.90;;;15.70;75.00;;;;;;4923101;28;98692;-52
2023/01/11 08:58:01;;;;;;;72.43;52.80;;;15.70;75.00;;;;;;4922370;28;96847;-48
2023/01/11 09:00:27;;;;;;;78.07;53.65;;;15.70;75.00;;;;;;4912826;28;97933;-55
2023/01/11 09:02:53;;;;;;;75.57;53.17;;;15.90;74.60;;;;;;4912367;28;95958;-52
2023/01/11 09:05:19;;;;;;;78.75;53.00;;;16.00;74.20;;;;;;4921738;28;95494;-53
2023/01/11 09:07:45;;;;;;;80.55;52.58;;;16.20;73.90;;;;;;4920174;28;96567;-52
2023/01/11 09:10:11;;;;;;;72.82;53.05;;;16.30;73.60;;;;;;4915832;28;99377;-54
2023/01/11 09:12:36;;;;;;;74.93;52.97;;;16.40;73.40;;;;;;4926508;28;95790;-54
2023/01/11 09:15:04;;;;;;;75.05;52.75;;;16.40;73.10;;;;;;4925701;28;96043;-54
2023/01/11 09:17:30;;;;;;;75.32;52.30;;;16.50;74.00;;;;;;4920316;28;96802;-50
2023/01/11 09:19:56;;;;;;;75.20;52.78;;;16.50;73.30;;;;;;4917025;28;100050;-49
2023/01/11 09:22:22;;;;;;;78.53;52.97;;;16.60;72.80;;;;;;4913831;28;96320;-49
2023/01/11 09:24:48;;;;;;;76.47;52.65;;;16.60;72.90;;;;;;4914500;28;97595;-52
2023/01/11 09:27:14;;;;;;;76.15;52.50;;;16.60;72.80;;;;;;4917317;28;94947;-54
2023/01/11 09:29:39;;;;;;;76.13;52.47;;;16.70;72.70;;;;;;4921798;28;97555;-49
2023/01/11 09:32:05;;;;;;;75.47;52.47;;;16.80;72.50;;;;;;4916591;28;94810;-51
2023/01/11 09:34:30;;;;;;;74.85;52.03;;;16.80;72.20;;;;;;4923695;28;95032;-56
2023/01/11 09:36:59;;;;;;;76.20;52.53;;;16.90;72.00;;;;;;4920088;28;98137;-52
2023/01/11 09:39:26;;;;;;;73.85;52.63;;;16.90;71.90;;;;;;4923830;28;95583;-55
2023/01/11 09:42:10;;;;;;;74.95;52.67;;;16.90;71.60;;;;;;4917316;28;95117;-54
2023/01/11 09:44:50;;;;;;;73.97;52.20;;;16.90;71.60;;;;;;4917542;28;97318;-54
2023/01/11 09:47:31;;;;;;;74.15;52.63;;;17.00;71.30;;;;;;4917357;28;98262;-55
2023/01/11 09:50:01;;;;;;;72.18;51.42;;;17.00;71.00;;;;;;4910139;28;97795;-54
2023/01/11 09:52:38;;;;;;;74.32;52.13;;;17.00;70.90;;;;;;4916528;28;96414;-52
2023/01/11 09:55:04;;;;;;;75.28;52.65;;;17.10;71.20;;;;;;4922725;28;95085;-52
2023/01/11 09:57:54;;;;;;;78.65;52.30;;;17.00;71.10;;;;;;4918166;28;96597;-53
2023/01/11 10:00:36;;;;;;;78.18;52.35;;;16.90;71.30;;;;;;4917325;28;95663;-48
2023/01/11 10:03:37;;;;;;;74.35;52.10;;;16.90;71.30;;;;;;4921277;28;95291;-56
2023/01/11 10:06:17;;;;;;;79.60;52.00;;;16.90;71.40;;;;;;4867841;28;97027;-51
2023/01/11 10:09:04;;;;;;;75.30;52.22;;;17.00;71.40;;;;;;4914323;28;94578;-47
2023/01/11 10:11:57;;;;;;;78.85;52.05;;;17.00;71.10;;;;;;4925647;28;97498;-50
2023/01/11 10:14:30;;;;;;;79.47;51.90;;;17.10;70.90;;;;;;4918000;28;101025;-50
2023/01/11 10:17:25;;;;;;;77.72;52.33;;;17.10;70.80;;;;;;4906333;28;98199;-48
2023/01/11 10:19:58;;;;;;;77.53;51.83;;;17.10;70.60;;;;;;4901365;28;98266;-51
2023/01/11 10:22:31;;;;;;;79.15;51.97;;;17.20;70.60;;;;;;4920933;28;98053;-52
2023/01/11 10:25:10;;;;;;;73.38;51.53;;;17.10;70.30;;;;;;4918257;28;95122;-49
2023/01/11 10:27:48;;;;;;;80.43;51.65;;;17.10;70.80;;;;;;4913472;28;95587;-54
2023/01/11 10:30:48;;;;;;;76.30;52.10;;;17.10;70.80;;;;;;4923425;28;96399;-47
2023/01/11 10:34:00;;;;;;;75.65;52.30;;;17.10;70.50;;;;;;4912795;28;95878;-52
2023/01/11 10:37:22;;;;;;;85.70;54.20;;;17.10;70.90;;;;;;4912821;28;94452;-54
2023/01/11 10:43:02;;;;;;;76.88;52.28;;;17.10;71.30;;;;;;4916919;28;96050;-49
2023/01/11 10:45:43;;;;;;;75.93;51.70;;;17.30;70.90;;;;;;4912182;28;98149;-53
2023/01/11 10:48:13;;;;;;;75.32;52.35;;;17.20;70.70;;;;;;4914125;28;96127;-51
2023/01/11 10:51:18;;;;;;;75.65;52.20;;;17.30;70.90;;;;;;4915908;28;95139;-48
2023/01/11 10:54:15;;;;;;;76.32;51.80;;;17.20;71.00;;;;;;4875929;28;95380;-51
2023/01/11 10:57:22;;;;;;;80.20;52.67;;;17.20;71.30;;;;;;4874319;28;99178;-55
2023/01/11 11:00:35;;;;;;;84.97;53.33;;;17.20;79.00;;;;;;4912252;28;95555;-56
2023/01/11 11:03:10;;;;;;;79.63;53.35;;;17.20;80.70;;;;;;4912738;28;98922;-48
2023/01/11 11:06:09;;;;;;;81.18;53.45;;;17.20;78.70;;;;;;4907881;28;94898;-48
2023/01/11 11:08:48;;;;;;;81.88;53.38;;;17.10;75.90;;;;;;4925450;28;95275;-50
2023/01/11 11:11:39;;;;;;;77.63;53.13;;;17.10;78.40;;;;;;4920308;28;96213;-51
2023/01/11 11:14:14;;;;;;;79.03;53.03;;;17.10;77.10;;;;;;4913759;28;101505;-56
2023/01/11 11:16:52;;;;;;;81.95;53.97;;;17.20;79.00;;;;;;4920491;28;95321;-49
2023/01/11 11:19:24;;;;;;;81.55;53.33;;;17.30;80.90;;;;;;4914247;28;97344;-48
2023/01/11 11:21:51;;;;;;;79.28;52.65;;;17.30;81.20;;;;;;4909611;28;97479;-49
2023/01/11 11:24:48;;;;;;;80.57;52.92;;;17.30;78.20;;;;;;4905835;28;101201;-53
2023/01/11 11:27:22;;;;;;;75.35;52.40;;;17.30;77.90;;;;;;4923487;28;95180;-50
2023/01/11 11:29:51;;;;;;;82.15;52.80;;;17.40;75.90;;;;;;4913995;28;95238;-48
2023/01/11 11:32:24;;;;;;;77.85;52.85;;;17.40;75.90;;;;;;4902841;28;95430;-50
2023/01/11 11:34:50;;;;;;;78.68;52.92;;;17.40;75.20;;;;;;4910437;28;95495;-52
2023/01/11 11:37:31;;;;;;;79.30;53.03;;;17.40;75.10;;;;;;4907486;28;96833;-53
2023/01/11 11:39:56;;;;;;;78.93;51.88;;;17.50;74.30;;;;;;4911266;28;98139;-53
2023/01/11 11:42:23;;;;;;;75.93;51.92;;;17.50;73.90;;;;;;4914966;28;98321;-57
2023/01/11 11:45:13;;;;;;;77.47;51.85;;;17.50;73.80;;;;;;4911666;28;95183;-55
2023/01/11 11:47:39;;;;;;;81.90;52.55;;;17.60;73.50;;;;;;4922457;28;95198;-53
2023/01/11 11:50:20;;;;;;;81.72;52.20;;;17.60;73.20;;;;;;4910907;28;98651;-55
2023/01/11 11:52:59;;;;;;;78.05;52.10;;;17.60;73.10;;;;;;4920733;28;95433;-49
2023/01/11 11:55:29;;;;;;;76.53;52.05;;;17.60;72.80;;;;;;4922284;28;96513;-54
2023/01/11 11:57:57;;;;;;;75.22;51.90;;;17.50;72.60;;;;;;4922015;28;95824;-49
2023/01/11 12:00:29;;;;;;;76.93;52.38;;;17.50;72.40;;;;;;4922372;28;95973;-51
2023/01/11 12:03:17;;;;;;;76.38;52.00;;;17.50;72.50;;;;;;4914572;28;95274;-60
2023/01/11 12:05:53;;;;;;;77.70;52.55;;;17.50;72.70;;;;;;4915830;28;96132;-53
2023/01/11 12:08:20;;;;;;;80.63;54.60;;;17.50;72.60;;;;;;4909728;28;97502;-53
2023/01/11 12:10:56;;;;;;;78.30;54.00;;;17.50;72.10;;;;;;4918512;28;96702;-50
2023/01/11 12:13:37;;;;;;;76.65;53.47;;;17.50;72.10;;;;;;4921640;28;96487;-47
2023/01/11 12:16:21;;;;;;;78.43;53.80;;;17.50;72.40;;;;;;4922267;28;94797;-48
2023/01/11 12:18:47;;;;;;;77.80;52.80;;;17.60;72.50;;;;;;4915030;28;95990;-53
2023/01/11 12:21:22;;;;;;;77.20;52.85;;;17.50;72.60;;;;;;4910691;28;97801;-56
2023/01/11 12:24:18;;;;;;;74.60;53.70;;;17.60;72.80;;;;;;4929358;28;94465;-55
2023/01/11 12:26:46;;;;;;;81.72;52.97;;;17.60;73.00;;;;;;4916705;28;96149;-57
2023/01/11 12:29:27;;;;;;;77.28;53.13;;;17.60;72.90;;;;;;4920315;28;97115;-50
2023/01/11 12:32:32;;;;;;;82.53;53.08;;;17.50;73.00;;;;;;4902687;28;98430;-54
2023/01/11 12:35:10;;;;;;;77.82;53.15;;;17.50;72.60;;;;;;4910293;28;96627;-53
2023/01/11 12:38:09;;;;;;;88.45;58.90;;;17.40;72.80;;;;;;4916189;28;95952;-54
2023/01/11 12:41:20;;;;;;;108.00;71.65;;;17.40;72.60;;;;;;4918333;28;96452;-48
2023/01/11 12:44:05;;;;;;;120.50;74.80;;;17.50;71.60;;;;;;4926592;28;95638;-54
2023/01/11 12:46:49;;;;;;;111.82;72.13;;;17.60;70.00;;;;;;4917130;28;97663;-51
2023/01/11 12:49:59;;;;;;;108.65;68.53;;;17.70;69.50;;;;;;4916673;28;95797;-51
2023/01/11 12:52:31;;;;;;;104.50;67.50;;;17.80;69.10;;;;;;4917823;28;96782;-53
2023/01/11 12:55:30;;;;;;;101.25;67.00;;;17.80;68.80;;;;;;4915564;28;97279;-58
2023/01/11 12:58:10;;;;;;;110.32;70.35;;;17.80;68.50;;;;;;4912241;28;96191;-50
2023/01/11 13:00:41;;;;;;;107.28;69.97;;;17.90;68.30;;;;;;4924162;28;96167;-51
2023/01/11 13:03:47;;;;;;;95.50;63.70;;;17.90;68.10;;;;;;4915637;28;99286;-57
2023/01/11 13:06:21;;;;;;;99.43;64.70;;;18.00;67.80;;;;;;4903397;28;95569;-52
2023/01/11 13:09:20;;;;;;;96.88;65.72;;;18.00;67.60;;;;;;4910194;28;96873;-53
2023/01/11 13:11:55;;;;;;;93.47;63.53;;;17.90;67.90;;;;;;4907579;28;94945;-51
2023/01/11 13:14:29;;;;;;;93.43;61.63;;;17.90;67.80;;;;;;4918725;28;94726;-56
2023/01/11 13:17:17;;;;;;;90.38;61.08;;;17.90;67.60;;;;;;4903635;28;95771;-52
2023/01/11 13:20:04;;;;;;;87.63;58.92;;;17.80;67.70;;;;;;4921805;28;95091;-47